Bettendorf, IA (52722)

5:25 AM CDT on September 04, 2015 (GMT -0500)
Stafford Creek | | Change Station
CLOSE
Current Station
Personal Weather Station
Location: Bettendorf, IA
Elevation: 682 ft
Nearby Weather Stations

Elev 682 ft 41.57 °N, 90.50 °W | Updated 13 minutes ago

Clear
Clear
69.1 °F
Feels Like 69.1 °F
N
0.0
Wind Variable Wind from SSW

Today
High -- | Low -- °F
--% Chance of Precip.
Yesterday
High -- | Low -- °F
Precip. -- in
6:30 AM 7:30 PM
Waning Gibbous, 61% visible
Pressure 29.94 in
Visibility 10.0 miles
Clouds Clear
Dew Point 69 °F
Humidity 99%
Rainfall 0.00 in
Snow Depth Not available.
UV 0 out of 12
Pollen 8.90 out of 12
Air Quality Not available.
Flu Activity Not available.
METAR KDVN 040952Z AUTO 00000KT 10SM CLR 20/19 A2996 RMK AO2 SLP138 T02000194
Pressure 29.94 in
Visibility 10.0 miles
Clouds Clear
Dew Point 69 °F
Humidity 99%
Rainfall 0.00 in
Snow Depth Not available.
UV 0 out of 12
Pollen 8.90 out of 12
Air Quality Not available.
Flu Activity Not available.
METAR KDVN 040952Z AUTO 00000KT 10SM CLR 20/19 A2996 RMK AO2 SLP138 T02000194

10-Day Weather Forecast

×

Almanac

Astronomy

Sep. 04, 2015 Rise Set
Actual Time
Civil Twilight
Nautical Twilight
Astronomical Twilight
Moon
Length of Visible Light
Length of Day
Tomorrow will be .
, % of the Moon is Illuminated

Today's Extremes

State Highs State Lows

Community

WunderPhotos

Upload Photos

1,852,146 photos uploaded!

WunderBlogs® & News

Nearby

Air Quality

  Air Quality AQ Index Pollutant
Not available.

Snow Depth

Station Depth Elevation

Earthquake Activity

City Distance Mag. Time & Date
Minimum magnitude displayed is 2.5.

Coastal Water Temperatures

Place Temperature

Stations

Nearby Weather Stations

Station Location Temp. Windchill Dew Point Humidity Wind Precip. Elev Updated Type